Time;durP1;ratioP1;P1;durP2;ratioP2;P2;SDS_P1;SDS_P2;PMS_P1;PMS_P2;Temp;Humidity;BMP_temperature;BMP_pressure;BME280_temperature;BME280_humidity;BME280_pressure;Samples;Min_cycle;Max_cycle;Signal;HPM_P1;HPM_P2
2023/12/20 00:00:56;;;;;;;1.27;0.68;;;8.90;88.90;;;;;;5050186;28;20031;-59
2023/12/20 00:03:22;;;;;;;1.38;0.82;;;8.80;88.70;;;;;;5047141;28;20200;-59
2023/12/20 00:05:48;;;;;;;1.98;1.00;;;8.90;88.70;;;;;;5045742;28;20029;-69
2023/12/20 00:08:13;;;;;;;0.45;0.40;;;8.90;88.60;;;;;;5047096;28;20105;-69
2023/12/20 00:10:39;;;;;;;1.30;0.85;;;8.90;88.50;;;;;;5047748;28;20142;-69
2023/12/20 00:13:06;;;;;;;0.75;0.38;;;8.90;88.50;;;;;;5047842;28;20025;-69
2023/12/20 00:15:32;;;;;;;1.48;0.65;;;8.80;88.50;;;;;;5053869;28;20262;-69
2023/12/20 00:17:58;;;;;;;3.85;1.05;;;8.80;88.40;;;;;;5035117;28;20124;-69
2023/12/20 00:20:23;;;;;;;3.08;1.08;;;8.80;88.30;;;;;;5043007;28;20147;-70
2023/12/20 00:22:49;;;;;;;2.95;0.98;;;8.80;88.30;;;;;;5047226;28;20488;-69
2023/12/20 00:25:15;;;;;;;2.53;0.80;;;8.70;88.20;;;;;;5044261;28;20152;-69
2023/12/20 00:27:41;;;;;;;2.55;1.17;;;8.70;88.30;;;;;;5052832;28;20040;-69
2023/12/20 00:30:08;;;;;;;3.00;0.77;;;8.80;88.30;;;;;;5049065;28;20032;-70
2023/12/20 00:32:35;;;;;;;7.03;1.45;;;8.80;88.30;;;;;;5048082;28;20033;-70
2023/12/20 00:35:01;;;;;;;5.55;1.05;;;8.80;88.10;;;;;;5041632;28;20040;-70
2023/12/20 00:37:26;;;;;;;3.33;1.38;;;8.80;88.00;;;;;;5048146;28;20502;-70
2023/12/20 00:39:53;;;;;;;6.75;1.13;;;8.70;88.00;;;;;;5032024;28;20321;-70
2023/12/20 00:42:18;;;;;;;1.80;1.10;;;8.70;88.10;;;;;;5044621;28;20373;-70
2023/12/20 00:44:44;;;;;;;1.42;0.90;;;8.70;88.20;;;;;;5036931;28;20400;-70
2023/12/20 00:47:10;;;;;;;3.10;1.20;;;8.60;88.10;;;;;;5048011;28;20033;-71
2023/12/20 00:49:36;;;;;;;2.15;1.33;;;8.60;88.20;;;;;;5034934;28;20029;-70
2023/12/20 00:52:01;;;;;;;3.90;1.13;;;8.60;88.30;;;;;;5037281;28;20057;-70
2023/12/20 00:54:28;;;;;;;4.05;1.02;;;8.60;88.30;;;;;;5047542;28;20384;-71
2023/12/20 00:56:54;;;;;;;3.13;0.88;;;8.60;88.30;;;;;;5028614;28;20115;-70
2023/12/20 00:59:19;;;;;;;4.97;1.85;;;8.50;88.30;;;;;;5033612;28;20131;-70
2023/12/20 01:01:45;;;;;;;2.45;0.90;;;8.50;88.20;;;;;;5050899;28;20025;-70
2023/12/20 01:04:11;;;;;;;4.13;0.98;;;8.50;88.20;;;;;;5047963;28;20078;-69
2023/12/20 01:06:37;;;;;;;5.25;1.38;;;8.40;88.30;;;;;;5043956;28;20040;-69
2023/12/20 01:09:02;;;;;;;1.55;1.10;;;8.40;88.30;;;;;;5040311;28;20039;-70
2023/12/20 01:11:28;;;;;;;4.85;1.20;;;8.40;88.30;;;;;;5055255;28;20033;-69
2023/12/20 01:13:54;;;;;;;23.45;1.67;;;8.40;88.30;;;;;;5048220;28;20035;-70
2023/12/20 01:16:21;;;;;;;1.30;0.60;;;8.30;88.20;;;;;;5041347;28;20398;-69
2023/12/20 01:18:46;;;;;;;2.30;1.00;;;8.40;88.40;;;;;;5043096;28;20273;-70
2023/12/20 01:21:12;;;;;;;3.60;0.95;;;8.40;88.30;;;;;;5042644;28;20021;-59
2023/12/20 01:23:38;;;;;;;3.05;1.05;;;8.40;88.30;;;;;;5052941;28;20111;-59
2023/12/20 01:26:05;;;;;;;2.65;0.70;;;8.40;88.20;;;;;;5050325;28;20121;-59
2023/12/20 01:28:31;;;;;;;11.25;2.47;;;8.30;88.20;;;;;;5050925;28;20029;-69
2023/12/20 01:30:57;;;;;;;3.30;1.33;;;8.40;88.30;;;;;;5048511;28;20031;-70
2023/12/20 01:33:23;;;;;;;2.47;0.90;;;8.40;88.20;;;;;;5046433;28;20037;-70
2023/12/20 01:35:49;;;;;;;2.55;1.52;;;8.40;88.20;;;;;;5041392;28;20079;-70
2023/12/20 01:38:15;;;;;;;6.60;0.98;;;8.40;88.20;;;;;;5049815;28;20078;-69
2023/12/20 01:40:40;;;;;;;1.60;0.98;;;8.30;88.10;;;;;;5045496;28;20031;-70
2023/12/20 01:43:11;;;;;;;5.45;0.95;;;8.30;88.20;;;;;;5046721;28;20037;-69
2023/12/20 01:45:37;;;;;;;3.75;0.95;;;8.30;88.70;;;;;;5055997;28;20569;-70
2023/12/20 01:48:04;;;;;;;6.82;1.20;;;8.20;88.10;;;;;;5045214;28;20107;-70
2023/12/20 01:50:31;;;;;;;3.30;1.52;;;8.20;88.20;;;;;;5057569;28;20064;-60
2023/12/20 01:53:00;;;;;;;3.47;0.93;;;8.20;88.30;;;;;;5050519;28;20537;-59
2023/12/20 01:55:29;;;;;;;2.65;1.17;;;8.20;88.20;;;;;;5054044;28;20025;-59
2023/12/20 01:57:56;;;;;;;4.55;1.88;;;8.20;88.10;;;;;;5043825;28;20024;-59
2023/12/20 02:00:26;;;;;;;1.42;1.10;;;8.20;88.10;;;;;;5048458;28;20079;-59
2023/12/20 02:02:54;;;;;;;3.88;1.38;;;8.20;88.20;;;;;;5045112;28;20036;-59
2023/12/20 02:05:21;;;;;;;2.05;1.15;;;8.20;88.10;;;;;;5050698;28;20025;-59
2023/12/20 02:07:47;;;;;;;4.35;1.10;;;8.20;88.10;;;;;;5047270;28;20111;-59
2023/12/20 02:10:13;;;;;;;4.63;1.13;;;8.20;87.90;;;;;;5056770;28;20104;-59
2023/12/20 02:12:38;;;;;;;5.80;1.17;;;8.20;87.90;;;;;;5056670;28;20097;-59
2023/12/20 02:15:05;;;;;;;1.80;0.80;;;8.20;88.00;;;;;;5049867;28;20046;-59
2023/12/20 02:17:32;;;;;;;6.72;0.93;;;8.20;88.10;;;;;;5047817;28;20516;-59
2023/12/20 02:19:58;;;;;;;1.05;0.85;;;8.20;88.00;;;;;;5056945;28;20035;-59
2023/12/20 02:22:23;;;;;;;7.53;1.58;;;8.20;88.00;;;;;;5053563;28;20029;-59
2023/12/20 02:24:49;;;;;;;6.60;2.13;;;8.20;88.00;;;;;;5050804;28;20083;-60
2023/12/20 02:27:17;;;;;;;6.18;1.73;;;8.20;87.90;;;;;;5053227;28;20372;-59
2023/12/20 02:29:43;;;;;;;4.28;1.08;;;8.30;88.00;;;;;;5052939;28;20033;-59
2023/12/20 02:32:09;;;;;;;2.05;1.38;;;8.20;87.90;;;;;;5056536;28;20090;-58
2023/12/20 02:34:34;;;;;;;2.20;1.23;;;8.30;88.00;;;;;;5054057;28;20104;-59
2023/12/20 02:37:00;;;;;;;2.25;1.33;;;8.30;88.00;;;;;;5050651;28;20472;-59
2023/12/20 02:39:26;;;;;;;4.05;1.85;;;8.30;87.90;;;;;;5058049;28;20356;-59
2023/12/20 02:41:51;;;;;;;10.05;2.28;;;8.30;87.80;;;;;;5049811;28;20384;-59
2023/12/20 02:44:17;;;;;;;3.15;1.27;;;8.40;87.70;;;;;;5056934;28;20060;-59
2023/12/20 02:46:43;;;;;;;6.65;1.30;;;8.40;88.20;;;;;;5055374;28;20032;-69
2023/12/20 02:49:09;;;;;;;2.97;1.35;;;8.40;87.70;;;;;;5058050;28;20112;-69
2023/12/20 02:51:34;;;;;;;7.28;1.45;;;8.40;87.60;;;;;;5058510;28;20040;-70
2023/12/20 02:54:00;;;;;;;5.50;1.88;;;8.40;87.60;;;;;;5055329;28;20106;-70
2023/12/20 02:56:26;;;;;;;11.68;1.98;;;8.40;87.50;;;;;;5055705;28;20037;-70
2023/12/20 02:58:51;;;;;;;6.47;1.10;;;8.30;87.60;;;;;;5058461;28;20029;-69
2023/12/20 03:01:17;;;;;;;4.78;1.67;;;8.30;87.70;;;;;;5054632;28;20025;-70
2023/12/20 03:03:43;;;;;;;4.63;1.45;;;8.40;87.80;;;;;;5055069;28;20044;-69
2023/12/20 03:06:08;;;;;;;3.08;1.63;;;8.40;87.80;;;;;;5050819;28;20929;-69
2023/12/20 03:08:34;;;;;;;8.57;1.95;;;8.40;87.70;;;;;;5041958;28;20034;-70
2023/12/20 03:11:00;;;;;;;1.80;1.00;;;8.40;87.80;;;;;;5079380;28;20036;-70
2023/12/20 03:13:25;;;;;;;5.88;1.80;;;8.40;87.70;;;;;;5046025;28;20028;-59
2023/12/20 03:15:51;;;;;;;3.15;1.75;;;8.40;87.70;;;;;;5048175;28;20368;-69
2023/12/20 03:18:18;;;;;;;3.50;1.30;;;8.30;87.80;;;;;;5050697;28;20024;-59
2023/12/20 03:20:43;;;;;;;2.47;0.98;;;8.40;87.90;;;;;;5052124;28;20044;-59
2023/12/20 03:23:09;;;;;;;10.77;0.98;;;8.40;87.90;;;;;;5050458;28;20460;-70
2023/12/20 03:25:35;;;;;;;2.40;1.67;;;8.30;87.90;;;;;;5054950;28;20028;-59
2023/12/20 03:28:01;;;;;;;3.97;1.85;;;8.30;87.90;;;;;;5066997;28;20404;-59
2023/12/20 03:30:27;;;;;;;4.07;1.48;;;8.30;88.00;;;;;;5048398;28;20025;-70
2023/12/20 03:32:52;;;;;;;11.45;2.17;;;8.30;88.00;;;;;;5058386;28;20032;-59
2023/12/20 03:35:18;;;;;;;6.70;2.50;;;8.20;87.90;;;;;;5050714;28;20039;-59
2023/12/20 03:37:44;;;;;;;2.22;1.58;;;8.20;88.00;;;;;;5051196;28;20021;-59
2023/12/20 03:40:10;;;;;;;3.25;1.48;;;8.20;88.00;;;;;;5050254;28;20060;-59
2023/12/20 03:42:35;;;;;;;3.55;1.17;;;8.20;88.00;;;;;;5050153;28;20253;-59
2023/12/20 03:45:01;;;;;;;7.00;1.17;;;8.20;88.00;;;;;;5053333;28;20435;-59
2023/12/20 03:47:27;;;;;;;5.85;2.35;;;8.20;88.00;;;;;;5057808;28;20100;-59
2023/12/20 03:49:53;;;;;;;5.40;1.25;;;8.20;88.00;;;;;;5050411;28;20107;-70
2023/12/20 03:52:19;;;;;;;2.40;1.33;;;8.20;87.90;;;;;;5056863;28;20524;-59
2023/12/20 03:54:44;;;;;;;2.90;1.88;;;8.20;87.90;;;;;;5051184;28;20029;-59
2023/12/20 03:57:10;;;;;;;6.10;1.52;;;8.20;87.90;;;;;;5041701;28;20139;-59
2023/12/20 03:59:37;;;;;;;8.43;1.55;;;8.20;87.90;;;;;;5050037;28;20064;-59
2023/12/20 04:02:03;;;;;;;2.83;1.30;;;8.20;88.00;;;;;;5042006;28;20104;-60
2023/12/20 04:04:29;;;;;;;4.85;1.38;;;8.10;88.00;;;;;;5050772;28;20461;-59
2023/12/20 04:06:55;;;;;;;3.80;1.80;;;8.20;88.00;;;;;;5053190;28;20119;-59
2023/12/20 04:09:20;;;;;;;2.50;1.00;;;8.20;88.00;;;;;;5044923;28;20034;-60
2023/12/20 04:11:46;;;;;;;2.20;1.20;;;8.20;88.00;;;;;;5052553;28;20025;-59
2023/12/20 04:14:12;;;;;;;1.70;0.90;;;8.20;87.90;;;;;;5053880;28;20037;-59
2023/12/20 04:16:38;;;;;;;3.17;1.33;;;8.20;87.90;;;;;;5050395;28;20045;-59
2023/12/20 04:19:04;;;;;;;13.15;1.08;;;8.20;87.90;;;;;;5049276;28;20033;-58
2023/12/20 04:21:30;;;;;;;15.55;3.42;;;8.30;87.90;;;;;;5052228;28;20071;-59
2023/12/20 04:23:56;;;;;;;3.13;1.50;;;8.30;87.90;;;;;;5056318;28;20029;-59
2023/12/20 04:26:22;;;;;;;10.68;1.90;;;8.30;87.90;;;;;;5049582;28;20480;-59
2023/12/20 04:28:48;;;;;;;8.45;1.92;;;8.30;87.90;;;;;;5051435;28;20033;-59
2023/12/20 04:31:13;;;;;;;9.35;1.95;;;8.30;87.80;;;;;;5048141;28;20032;-59
2023/12/20 04:33:39;;;;;;;2.55;1.25;;;8.30;87.80;;;;;;5045916;28;20058;-59
2023/12/20 04:36:05;;;;;;;6.25;2.65;;;8.30;87.90;;;;;;5052279;28;20417;-59
2023/12/20 04:38:31;;;;;;;5.70;1.83;;;8.30;87.80;;;;;;5049011;28;20036;-70
2023/12/20 04:40:57;;;;;;;4.60;1.90;;;8.40;87.80;;;;;;5050844;28;20025;-69
2023/12/20 04:43:22;;;;;;;3.55;1.63;;;8.40;87.80;;;;;;5059225;28;20088;-70
2023/12/20 04:45:48;;;;;;;1.85;0.93;;;8.40;87.60;;;;;;5055983;28;20033;-70
2023/12/20 04:48:14;;;;;;;5.97;2.03;;;8.40;87.60;;;;;;5053000;28;20097;-70
2023/12/20 04:50:39;;;;;;;10.07;1.83;;;8.50;87.60;;;;;;5059790;28;20060;-69
2023/12/20 04:53:05;;;;;;;11.75;2.20;;;8.50;87.60;;;;;;5056377;28;20028;-69
2023/12/20 04:55:31;;;;;;;3.00;1.48;;;8.50;87.40;;;;;;5059633;28;20036;-59
2023/12/20 04:57:57;;;;;;;3.22;2.22;;;8.50;87.50;;;;;;5056134;28;20090;-59
2023/12/20 05:00:22;;;;;;;5.75;1.98;;;8.50;87.30;;;;;;5057217;28;20472;-70
2023/12/20 05:02:48;;;;;;;2.80;1.63;;;8.60;87.40;;;;;;5048993;28;20343;-70
2023/12/20 05:05:15;;;;;;;8.30;1.88;;;8.60;87.40;;;;;;5053203;28;20033;-69
2023/12/20 05:07:41;;;;;;;4.90;1.83;;;8.60;87.40;;;;;;5046428;28;20078;-70
2023/12/20 05:10:09;;;;;;;5.32;2.08;;;8.60;87.30;;;;;;5053548;28;20032;-70
2023/12/20 05:12:35;;;;;;;7.70;2.00;;;8.70;87.30;;;;;;5047906;28;20356;-70
2023/12/20 05:15:01;;;;;;;3.65;1.20;;;8.60;87.10;;;;;;5049287;28;20526;-69
2023/12/20 05:17:27;;;;;;;5.38;2.30;;;8.60;87.70;;;;;;5040576;28;20037;-69
2023/12/20 05:19:52;;;;;;;7.50;1.83;;;8.60;87.10;;;;;;5054171;28;20037;-70
2023/12/20 05:22:20;;;;;;;2.28;1.10;;;8.70;87.20;;;;;;5043378;28;20135;-69
2023/12/20 05:24:45;;;;;;;2.38;1.63;;;8.70;87.10;;;;;;5043304;28;20025;-69
2023/12/20 05:27:11;;;;;;;2.92;1.40;;;8.70;87.10;;;;;;5046641;28;20152;-69
2023/12/20 05:29:37;;;;;;;6.10;2.38;;;8.70;87.00;;;;;;5044849;28;20033;-69
2023/12/20 05:32:04;;;;;;;2.50;1.45;;;8.70;87.00;;;;;;5051116;28;20021;-59
2023/12/20 05:34:30;;;;;;;2.70;0.93;;;8.70;87.00;;;;;;5044677;28;20048;-59
2023/12/20 05:36:57;;;;;;;3.88;1.50;;;8.80;87.10;;;;;;5052363;28;20029;-69
2023/12/20 05:39:23;;;;;;;8.95;2.35;;;8.80;86.90;;;;;;5046182;28;20029;-69
2023/12/20 05:41:48;;;;;;;4.72;0.98;;;8.80;86.90;;;;;;5048300;28;20033;-69
2023/12/20 05:44:14;;;;;;;2.97;1.60;;;8.80;86.80;;;;;;5051676;28;20107;-69
2023/12/20 05:46:40;;;;;;;9.60;1.80;;;8.80;86.70;;;;;;5045746;28;20037;-69
2023/12/20 05:49:06;;;;;;;10.65;2.03;;;8.90;86.70;;;;;;5048164;28;20033;-70
2023/12/20 05:51:32;;;;;;;4.68;2.65;;;8.90;86.60;;;;;;5029164;28;20037;-70
2023/12/20 05:53:58;;;;;;;8.65;1.25;;;8.90;86.50;;;;;;5043180;28;20025;-69
2023/12/20 05:56:24;;;;;;;6.10;2.00;;;8.90;86.50;;;;;;5044468;28;20040;-59
2023/12/20 05:58:50;;;;;;;3.38;1.02;;;8.90;86.30;;;;;;5040673;28;20037;-59
2023/12/20 06:01:19;;;;;;;4.85;2.50;;;8.90;86.40;;;;;;5056506;28;20033;-59
2023/12/20 06:03:45;;;;;;;5.07;1.58;;;9.00;86.30;;;;;;5046569;28;20372;-59
2023/12/20 06:06:12;;;;;;;3.78;1.38;;;9.00;86.20;;;;;;5050670;28;20389;-59
2023/12/20 06:08:38;;;;;;;4.65;1.52;;;9.00;86.10;;;;;;5049444;28;20045;-59
2023/12/20 06:11:05;;;;;;;4.18;1.58;;;8.90;86.10;;;;;;5048680;28;20024;-69
2023/12/20 06:13:31;;;;;;;2.58;1.40;;;8.90;86.00;;;;;;5043510;28;20068;-70
2023/12/20 06:15:56;;;;;;;5.75;1.80;;;8.90;86.10;;;;;;5046019;28;20492;-70
2023/12/20 06:18:22;;;;;;;5.68;1.85;;;8.90;86.00;;;;;;5046029;28;20123;-70
2023/12/20 06:20:48;;;;;;;7.10;1.40;;;8.90;86.00;;;;;;5045951;28;20061;-70
2023/12/20 06:23:14;;;;;;;3.15;0.98;;;9.00;86.00;;;;;;5051679;28;20048;-70
2023/12/20 06:25:40;;;;;;;5.32;1.80;;;9.00;86.00;;;;;;5051346;28;20041;-70
2023/12/20 06:28:06;;;;;;;4.80;1.55;;;9.00;85.80;;;;;;5038839;28;20033;-70
2023/12/20 06:30:32;;;;;;;5.60;1.58;;;9.00;85.90;;;;;;5045874;28;20064;-70
2023/12/20 06:32:58;;;;;;;4.88;1.10;;;9.00;85.80;;;;;;5050281;28;20471;-70
2023/12/20 06:35:24;;;;;;;2.58;1.33;;;9.00;85.80;;;;;;5048272;28;20033;-70
2023/12/20 06:37:50;;;;;;;8.80;2.28;;;9.00;85.70;;;;;;5049824;28;20411;-70
2023/12/20 06:40:16;;;;;;;8.65;1.65;;;9.00;85.50;;;;;;5042414;28;20017;-71
2023/12/20 06:42:42;;;;;;;5.47;1.30;;;9.00;85.50;;;;;;5056332;28;20533;-60
2023/12/20 06:45:08;;;;;;;13.23;2.55;;;9.00;85.60;;;;;;5049714;28;20480;-60
2023/12/20 06:47:34;;;;;;;2.05;1.33;;;9.00;85.60;;;;;;5051400;28;20037;-60
2023/12/20 06:50:00;;;;;;;4.90;1.25;;;9.00;85.60;;;;;;5051416;28;20037;-70
2023/12/20 06:52:26;;;;;;;3.38;1.55;;;9.00;85.60;;;;;;5027454;28;20111;-71
2023/12/20 06:54:52;;;;;;;2.35;1.48;;;9.00;85.50;;;;;;5050382;28;20158;-71
2023/12/20 06:57:19;;;;;;;4.18;1.55;;;9.10;85.40;;;;;;5052364;28;20464;-71
2023/12/20 06:59:44;;;;;;;4.20;1.55;;;9.00;85.40;;;;;;5055006;28;20033;-71
2023/12/20 07:02:10;;;;;;;3.55;1.52;;;9.00;85.40;;;;;;5035388;28;20025;-71
2023/12/20 07:04:41;;;;;;;7.80;2.08;;;9.00;85.40;;;;;;5054777;28;20842;-60
2023/12/20 07:07:07;;;;;;;9.50;1.55;;;9.00;85.20;;;;;;5050318;28;20164;-60
2023/12/20 07:09:33;;;;;;;8.02;1.30;;;9.00;85.10;;;;;;5038552;28;20129;-60
2023/12/20 07:11:59;;;;;;;6.13;1.58;;;9.00;85.10;;;;;;5054628;28;20541;-60
2023/12/20 07:14:25;;;;;;;10.13;1.77;;;9.00;85.10;;;;;;5057719;28;20131;-60
2023/12/20 07:16:51;;;;;;;10.48;1.92;;;9.00;85.00;;;;;;5054886;28;20053;-60
2023/12/20 07:19:16;;;;;;;6.22;1.52;;;9.00;85.00;;;;;;5052685;28;20090;-71
2023/12/20 07:21:42;;;;;;;6.85;2.20;;;9.00;85.00;;;;;;5052796;28;20037;-71
2023/12/20 07:24:08;;;;;;;7.85;1.35;;;9.10;85.00;;;;;;5055579;28;20037;-71
2023/12/20 07:26:34;;;;;;;3.55;2.15;;;9.00;85.00;;;;;;5053001;28;20044;-70
2023/12/20 07:29:00;;;;;;;10.15;2.15;;;9.00;84.90;;;;;;5050444;28;20029;-71
2023/12/20 07:31:26;;;;;;;3.33;1.75;;;9.00;84.90;;;;;;5050822;28;20044;-70
2023/12/20 07:33:51;;;;;;;5.50;1.98;;;9.10;85.00;;;;;;5052749;28;20033;-70
2023/12/20 07:36:17;;;;;;;6.75;1.70;;;9.10;85.00;;;;;;5049265;28;20033;-71
2023/12/20 07:38:44;;;;;;;5.30;2.00;;;9.10;84.90;;;;;;5057926;28;20056;-71
2023/12/20 07:41:12;;;;;;;2.83;1.35;;;9.10;84.90;;;;;;5051251;28;20416;-70
2023/12/20 07:43:38;;;;;;;7.07;2.28;;;9.00;84.90;;;;;;5046190;28;20455;-71
2023/12/20 07:46:08;;;;;;;11.30;2.40;;;9.10;85.10;;;;;;5051801;28;20118;-71
2023/12/20 07:48:37;;;;;;;7.38;2.72;;;9.10;85.10;;;;;;5053010;28;20392;-71
2023/12/20 07:51:04;;;;;;;9.77;2.20;;;9.10;85.00;;;;;;5049948;28;20025;-71
2023/12/20 07:53:29;;;;;;;4.10;1.60;;;9.00;85.00;;;;;;5049896;28;20508;-70
2023/12/20 07:55:55;;;;;;;5.28;1.35;;;9.10;85.00;;;;;;5054504;28;20159;-70
2023/12/20 07:58:22;;;;;;;9.38;2.22;;;9.00;85.00;;;;;;5055432;28;20059;-60
2023/12/20 08:00:47;;;;;;;6.00;2.03;;;9.00;85.60;;;;;;5050594;28;20028;-70
2023/12/20 08:03:13;;;;;;;5.80;2.08;;;9.10;85.10;;;;;;5053506;28;20029;-60
2023/12/20 08:05:41;;;;;;;4.75;1.88;;;9.10;85.10;;;;;;5050456;28;20471;-70
2023/12/20 08:08:07;;;;;;;13.27;2.13;;;9.10;85.10;;;;;;5056659;28;20025;-70
2023/12/20 08:10:33;;;;;;;4.72;1.55;;;9.10;85.00;;;;;;5045053;28;20446;-60
2023/12/20 08:12:59;;;;;;;7.60;1.80;;;9.10;85.10;;;;;;5051776;28;20480;-60
2023/12/20 08:15:24;;;;;;;6.00;2.85;;;9.20;85.20;;;;;;5056739;28;20032;-61
2023/12/20 08:17:53;;;;;;;3.45;1.50;;;9.20;85.00;;;;;;5046071;28;20128;-70
2023/12/20 08:20:18;;;;;;;5.40;1.58;;;9.20;85.10;;;;;;5060445;28;20056;-60
2023/12/20 08:22:44;;;;;;;6.95;1.45;;;9.20;85.00;;;;;;5057085;28;20029;-60
2023/12/20 08:25:10;;;;;;;6.72;2.60;;;9.20;85.00;;;;;;5048060;28;20040;-60
2023/12/20 08:27:42;;;;;;;6.43;1.70;;;9.20;84.90;;;;;;5055319;28;20039;-70
2023/12/20 08:30:10;;;;;;;6.40;1.88;;;9.30;84.90;;;;;;5055974;28;20041;-71
2023/12/20 08:32:36;;;;;;;10.73;1.75;;;9.30;85.00;;;;;;5042141;28;20066;-70
2023/12/20 08:35:02;;;;;;;4.13;1.52;;;9.30;84.90;;;;;;5045996;28;20492;-70
2023/12/20 08:37:29;;;;;;;2.63;1.73;;;9.30;84.90;;;;;;5054318;28;20037;-69
2023/12/20 08:39:55;;;;;;;8.38;1.38;;;9.30;84.90;;;;;;5056225;28;20028;-72
2023/12/20 08:42:21;;;;;;;8.68;2.17;;;9.30;84.90;;;;;;5051197;28;20369;-71
2023/12/20 08:44:47;;;;;;;5.82;1.35;;;9.30;84.80;;;;;;5057967;28;20052;-71
2023/12/20 08:47:15;;;;;;;3.10;1.65;;;9.40;84.90;;;;;;5049434;28;20464;-71
2023/12/20 08:49:41;;;;;;;4.88;1.95;;;9.30;84.90;;;;;;5046824;28;20040;-70
2023/12/20 08:52:07;;;;;;;2.78;1.33;;;9.30;84.80;;;;;;5056963;28;20032;-70
2023/12/20 08:54:32;;;;;;;8.85;2.60;;;9.40;84.90;;;;;;5048974;28;20480;-72
2023/12/20 08:56:58;;;;;;;2.30;1.00;;;9.40;84.80;;;;;;5060860;28;20012;-60
2023/12/20 08:59:24;;;;;;;2.45;1.10;;;9.30;84.90;;;;;;5050273;28;20051;-61
2023/12/20 09:01:54;;;;;;;5.85;2.33;;;9.40;85.00;;;;;;5051807;28;20025;-60
2023/12/20 09:04:20;;;;;;;4.40;1.98;;;9.40;85.00;;;;;;5051675;28;20048;-61
2023/12/20 09:06:45;;;;;;;2.97;1.30;;;9.40;85.10;;;;;;5061555;28;20094;-60
2023/12/20 09:09:13;;;;;;;2.80;1.27;;;9.30;85.20;;;;;;5049910;28;20037;-71
2023/12/20 09:11:39;;;;;;;3.67;1.25;;;9.30;85.40;;;;;;5048710;28;20044;-71
2023/12/20 09:14:05;;;;;;;2.40;1.80;;;9.30;85.60;;;;;;5050480;28;20025;-67
2023/12/20 09:16:31;;;;;;;10.40;2.83;;;9.30;85.70;;;;;;5051025;28;20045;-70
2023/12/20 09:18:57;;;;;;;3.53;1.67;;;9.30;85.80;;;;;;5049687;28;20024;-60
2023/12/20 09:21:23;;;;;;;7.78;2.35;;;9.30;85.80;;;;;;5054300;28;20025;-61
2023/12/20 09:23:48;;;;;;;4.40;2.65;;;9.30;86.10;;;;;;5033713;28;20060;-71
2023/12/20 09:26:14;;;;;;;5.07;1.67;;;9.30;86.30;;;;;;5047837;28;20040;-70
2023/12/20 09:28:40;;;;;;;9.20;2.60;;;9.30;86.50;;;;;;5035099;28;20562;-70
2023/12/20 09:31:06;;;;;;;8.85;1.90;;;9.30;86.70;;;;;;5046393;28;20044;-73
2023/12/20 09:33:32;;;;;;;2.63;1.15;;;9.20;86.90;;;;;;5050122;28;20502;-60
2023/12/20 09:35:58;;;;;;;5.05;1.30;;;9.20;87.10;;;;;;5044073;28;20025;-61
2023/12/20 09:38:24;;;;;;;7.32;2.45;;;9.20;87.30;;;;;;5049702;28;20136;-71
2023/12/20 09:40:50;;;;;;;6.20;1.83;;;9.20;87.50;;;;;;5050439;28;20028;-71
2023/12/20 09:43:19;;;;;;;10.00;2.33;;;9.20;87.50;;;;;;5047431;28;20490;-71
2023/12/20 09:45:47;;;;;;;3.15;1.42;;;9.20;87.70;;;;;;5053777;28;20033;-71
2023/12/20 09:48:16;;;;;;;4.53;1.75;;;9.20;87.90;;;;;;5048943;28;20033;-71
2023/12/20 09:50:42;;;;;;;3.25;1.35;;;9.10;88.00;;;;;;5054631;28;20400;-70
2023/12/20 09:53:15;;;;;;;3.33;1.48;;;9.20;88.20;;;;;;5046643;28;20037;-68
2023/12/20 09:55:41;;;;;;;4.32;2.08;;;9.20;88.30;;;;;;5042856;28;20029;-70
2023/12/20 09:58:08;;;;;;;6.07;1.55;;;9.20;88.40;;;;;;5047256;28;20067;-69
2023/12/20 10:00:35;;;;;;;4.90;2.10;;;9.20;88.40;;;;;;5045055;28;20032;-69
2023/12/20 10:03:01;;;;;;;3.28;1.75;;;9.20;88.50;;;;;;5045374;28;20029;-70
2023/12/20 10:05:30;;;;;;;5.05;2.35;;;9.20;88.60;;;;;;5052527;28;20479;-60
2023/12/20 10:07:56;;;;;;;2.75;1.23;;;9.20;88.60;;;;;;5046192;28;20032;-59
2023/12/20 10:10:22;;;;;;;3.08;1.00;;;9.30;88.60;;;;;;5052239;28;20040;-60
2023/12/20 10:13:10;;;;;;;6.82;1.63;;;9.30;88.50;;;;;;5051219;28;20028;-60
2023/12/20 10:15:37;;;;;;;6.45;1.80;;;9.40;88.30;;;;;;5051947;28;20161;-60
2023/12/20 10:18:04;;;;;;;4.43;1.17;;;9.30;88.30;;;;;;5033722;28;20429;-60
2023/12/20 10:20:31;;;;;;;2.05;1.17;;;9.30;88.40;;;;;;5041838;28;20106;-61
2023/12/20 10:22:58;;;;;;;6.93;1.90;;;9.30;88.40;;;;;;5028678;28;20132;-60
2023/12/20 10:25:24;;;;;;;6.68;2.17;;;9.40;88.40;;;;;;5049452;28;20116;-59
2023/12/20 10:28:08;;;;;;;3.00;1.52;;;9.40;88.40;;;;;;5033564;28;20108;-69
2023/12/20 10:30:33;;;;;;;3.72;1.63;;;9.40;89.00;;;;;;5033456;28;20043;-70
2023/12/20 10:32:59;;;;;;;4.75;2.33;;;9.40;88.30;;;;;;5041973;28;20037;-68
2023/12/20 10:35:25;;;;;;;6.05;2.08;;;9.50;88.20;;;;;;5040235;28;20459;-68
2023/12/20 10:37:55;;;;;;;2.25;1.52;;;9.50;88.20;;;;;;5046981;28;20063;-68
2023/12/20 10:40:22;;;;;;;6.03;2.10;;;9.50;88.10;;;;;;5030353;28;20047;-69
2023/12/20 10:42:49;;;;;;;5.20;1.52;;;9.60;88.00;;;;;;5035741;28;20632;-67
2023/12/20 10:45:16;;;;;;;4.55;1.35;;;9.50;87.90;;;;;;5035920;28;20800;-68
2023/12/20 10:47:46;;;;;;;3.88;1.38;;;9.60;88.00;;;;;;5041533;28;20515;-68
2023/12/20 10:50:12;;;;;;;4.82;1.48;;;9.60;87.90;;;;;;5047404;28;20025;-69
2023/12/20 10:52:38;;;;;;;9.15;1.80;;;9.60;87.90;;;;;;5057928;28;20095;-68
2023/12/20 10:55:05;;;;;;;7.22;1.45;;;9.60;87.90;;;;;;5055046;28;20029;-69
2023/12/20 10:57:30;;;;;;;5.80;2.13;;;9.60;87.90;;;;;;5055391;28;20028;-69
2023/12/20 11:00:04;;;;;;;4.22;1.88;;;9.60;88.50;;;;;;5038598;28;20016;-70
2023/12/20 11:02:39;;;;;;;7.55;1.85;;;9.60;88.00;;;;;;5042311;28;20048;-67
2023/12/20 11:05:22;;;;;;;5.85;1.67;;;9.60;88.10;;;;;;5053091;28;20028;-69
2023/12/20 11:08:05;;;;;;;7.65;2.50;;;9.60;88.20;;;;;;5043330;28;20115;-68
2023/12/20 11:10:52;;;;;;;1.55;1.13;;;9.60;88.10;;;;;;5051269;28;20484;-70
2023/12/20 11:13:26;;;;;;;5.15;1.83;;;9.70;88.00;;;;;;5042328;28;20037;-66
2023/12/20 11:15:52;;;;;;;8.30;2.45;;;9.70;87.90;;;;;;5046933;28;20043;-64
2023/12/20 11:18:18;;;;;;;5.65;1.48;;;9.70;88.00;;;;;;5046980;28;20029;-67
2023/12/20 11:20:43;;;;;;;7.72;1.45;;;9.80;88.10;;;;;;5046197;28;20033;-63
2023/12/20 11:23:10;;;;;;;4.90;1.13;;;9.80;88.10;;;;;;5047773;28;20017;-64
2023/12/20 11:25:56;;;;;;;6.10;1.85;;;9.80;88.00;;;;;;5052587;28;20466;-69
2023/12/20 11:28:24;;;;;;;6.18;2.53;;;9.90;87.90;;;;;;5051295;28;20029;-60
2023/12/20 11:30:55;;;;;;;7.53;2.08;;;9.90;88.00;;;;;;5056719;28;20028;-60
2023/12/20 11:33:30;;;;;;;6.38;1.83;;;9.80;87.90;;;;;;5053744;28;20122;-59
2023/12/20 11:35:57;;;;;;;6.40;2.65;;;9.80;88.00;;;;;;5048828;28;20037;-67
2023/12/20 11:38:23;;;;;;;11.13;2.28;;;9.80;88.10;;;;;;5047837;28;20029;-68
2023/12/20 11:40:50;;;;;;;4.72;1.52;;;9.80;88.10;;;;;;5050006;28;20075;-68
2023/12/20 11:43:32;;;;;;;9.93;1.60;;;9.90;88.20;;;;;;5042194;28;20029;-68
2023/12/20 11:46:07;;;;;;;4.05;2.22;;;9.90;88.00;;;;;;5046786;28;20021;-68
2023/12/20 11:48:34;;;;;;;7.10;1.95;;;9.90;88.00;;;;;;5047871;28;20017;-68
2023/12/20 11:51:00;;;;;;;3.38;1.98;;;9.90;88.00;;;;;;5056214;28;20539;-59
2023/12/20 11:53:26;;;;;;;2.53;1.23;;;9.90;88.00;;;;;;5055020;28;20052;-60
2023/12/20 11:55:51;;;;;;;5.85;2.17;;;10.00;88.10;;;;;;5040778;28;20033;-59
2023/12/20 11:58:17;;;;;;;4.75;1.92;;;10.00;88.00;;;;;;5046570;28;20484;-60
2023/12/20 12:00:43;;;;;;;8.43;2.15;;;10.00;88.50;;;;;;5050332;28;20183;-60
2023/12/20 12:03:09;;;;;;;13.68;2.60;;;10.00;87.90;;;;;;5042734;28;20562;-59
2023/12/20 12:05:35;;;;;;;4.68;2.25;;;10.00;88.00;;;;;;5034820;28;20037;-68
2023/12/20 12:08:02;;;;;;;6.65;1.70;;;10.00;88.50;;;;;;5048667;28;20032;-59
2023/12/20 12:10:29;;;;;;;1.95;1.27;;;10.00;87.50;;;;;;5042721;28;20032;-60
2023/12/20 12:12:55;;;;;;;1.85;1.10;;;10.10;87.20;;;;;;5047592;28;20559;-68
2023/12/20 12:15:21;;;;;;;2.53;1.40;;;10.10;87.10;;;;;;5040760;28;20037;-68
2023/12/20 12:17:57;;;;;;;4.05;1.38;;;10.20;87.10;;;;;;5041598;28;20492;-68
2023/12/20 12:20:24;;;;;;;4.43;2.10;;;10.20;86.30;;;;;;5044452;28;20491;-68
2023/12/20 12:23:03;;;;;;;8.63;1.13;;;10.30;86.00;;;;;;5053088;28;20029;-58
2023/12/20 12:25:31;;;;;;;7.22;1.67;;;10.30;85.90;;;;;;5051169;28;20021;-58
2023/12/20 12:27:58;;;;;;;2.92;1.42;;;10.30;85.40;;;;;;5049925;28;20021;-58
2023/12/20 12:30:23;;;;;;;2.88;1.52;;;10.30;84.70;;;;;;5057568;28;20029;-58
2023/12/20 12:32:51;;;;;;;4.20;1.45;;;10.40;84.30;;;;;;5047355;28;20545;-66
2023/12/20 12:35:17;;;;;;;1.67;1.05;;;10.40;84.10;;;;;;5042741;28;20443;-67
2023/12/20 12:37:43;;;;;;;8.18;1.67;;;10.50;84.30;;;;;;5046884;28;20017;-67
2023/12/20 12:40:14;;;;;;;2.75;1.65;;;10.50;83.90;;;;;;5048344;28;20029;-66
2023/12/20 12:42:41;;;;;;;3.03;1.20;;;10.50;83.50;;;;;;5051465;28;20431;-59
2023/12/20 12:45:08;;;;;;;3.13;1.00;;;10.50;83.60;;;;;;5055523;28;20063;-58
2023/12/20 12:47:34;;;;;;;2.65;1.63;;;10.50;83.10;;;;;;5053714;28;20045;-58
2023/12/20 12:50:00;;;;;;;3.33;1.00;;;10.60;83.40;;;;;;5050526;28;20111;-66
2023/12/20 12:52:26;;;;;;;3.63;0.93;;;10.60;83.50;;;;;;5040957;28;20124;-67